AirNav   Pilot Hours Calculator
 
 1585 users online  

06NH Cole Farm Airport
Kensington, New Hampshire, USA

GOING TO KENSINGTON?


FAA INFORMATION EFFECTIVE 02 JANUARY 2020

Location

FAA Identifier: 06NH
Lat/Long: 42-55-42.3200N 070-58-23.2000W
42-55.705333N 070-58.386667W
42.9284222,-70.9731111
(estimated)
Elevation: 160 ft. / 49 m (estimated)
Variation: 16W (2000)
From city: 2 miles W of KENSINGTON, NH
Time zone: UTC -5 (UTC -4 during Daylight Saving Time)
Zip code: 03833

Airport Operations

Airport use: Private use. Permission required prior to landing
Activation date: 11/2000
Control tower: no
ARTCC: BOSTON CENTER
FSS: BANGOR FLIGHT SERVICE STATION
Attendance: UNATNDD
Segmented circle: no

Airport Communications

WX ASOS at LWM (14 nm SW): PHONE 978-687-8017

Nearby radio navigation aids

VOR radial/distance  VOR name  Freq  Var
PSMr229/11.2PEASE VOR/DME116.5016W
LWMr040/12.5LAWRENCE VOR/DME112.5015W
MHTr093/17.8MANCHESTER VOR/DME114.4015W
CONr139/31.7CONCORD VOR/DME112.9015W
ENEr225/33.7KENNEBUNK VOR/DME117.1017W
BOSr017/34.3BOSTON VOR/DME112.7016W

 
NDB name  Hdg/Dist  Freq  Var  ID
ROLLINS216/18.626016WESG . ... --.

Airport Services

Runway Information

Runway 17/35

Dimensions: 1900 x 150 ft. / 579 x 46 m
Surface: turf
RUNWAY 17  RUNWAY 35
Traffic pattern: leftleft
Obstructions: none20 ft. pline, 300 ft. from runway

Airport Ownership and Management from official FAA records

Ownership: Privately-owned
Owner: GEORGE COLE
89 STUMPFIELD ROAD
KENSINGTON, NH 03833
Phone 603-772-3335
Manager: GEORGE COLE
89 STUMPFIELD ROAD
KENSINGTON, NH 03833
Phone 603-772-3335

Airport Operational Statistics

Aircraft based on the field: 5
Single engine airplanes: 5
    

Additional Remarks

OWNER DESIRES ARPT NOT BE CHARTED.
FOR CD CTC BOSTON APCH AT 603-594-5551.

Instrument Procedures

There are no published instrument procedures at 06NH.

Some nearby airports with instrument procedures:

KPSM - Portsmouth International Airport at Pease (11 nm NE)
KLWM - Lawrence Municipal Airport (14 nm SW)
3B4 - Littlebrook Air Park (16 nm NE)
KMHT - Manchester Airport (20 nm W)
KBVY - Beverly Regional Airport (21 nm S)
 
Loc | Ops | Rwys | IFR | FBO | Links
Com | Nav | Svcs | Stats | Notes
Area around 06NH (Cole Farm Airport)
 
Road maps at: MapQuest Bing Google
 
Aerial photo
WARNING: Photo may not be current or correct
Aerial photo of 06NH (Cole Farm Airport)
Do you have a better or more recent aerial photo of Cole Farm Airport that you would like to share? If so, please send us your photo.

 
Sectional chart

 
Airport distance calculator
Flying to Cole Farm Airport? Find the distance to fly.

From to 06NH

Sunrise and sunset
Times for 27-Jan-2020
 Local
(UTC-5)
 Zulu
(UTC)
Morning civil twilight06:3411:34
Sunrise07:0512:05
Sunset16:4921:49
Evening civil twilight17:1922:19

Current date and time
Zulu (UTC)  27-Jan-2020 23:15:37
Local (UTC-5)  27-Jan-2020 18:15:37
 
METAR
KPSM 
11nm NE 
272256Z 29007KT 10SM FEW050 BKN080 04/M03 A2955 RMK AO2A SLP010 T00431030
KLWM 
15nm SW 
272254Z 27007KT 10SM OVC048 05/M03 A2959 RMK AO2 SLP023 T00501028
KMHT 
20nm W 
272253Z 30010G15KT 10SM FEW050 BKN070 05/M03 A2957 RMK AO2 SLP030 T00501033
KBVY 
21nm S 
272253Z 27006KT 10SM SCT055 OVC075 06/M03 A2957 RMK AO2 SLP010 T00561028 $
KDAW 
21nm N 
272251Z AUTO VRB04KT 10SM OVC080 04/M03 A2955 RMK AO2 SLP006 T00391028
TAF
KPSM 
11nm NE 
271720Z 2718/2818 26010KT P6SM SCT040 FM280000 28008KT P6SM SKC FM281000 32007KT P6SM BKN035
NOTAMs
Click for the latest NOTAMs
NOTAMs are issued by the DoD/FAA and will open in a separate window not controlled by AirNav.

 

 
 

Would you like to see your business listed on this page?

 If your business provides an interesting product or service to pilots, flight crews, aircraft, or users of the Cole Farm Airport, you should consider listing it here.  To start the listing process, click on the button below
 
Add a business
 

Other Pages about Cole Farm Airport

Update a link
 
Copyright © AirNav, LLC. All rights reserved. Privacy Policy  Contact